sensor_id;sensor_type;location;lat;lon;timestamp;pressure;altitude;pressure_sealevel;temperature;humidity
54816;BME280;40715;55.752;37.884;2023-02-23T00:01:52;98756.53;;;24.06;21.44
54816;BME280;40715;55.752;37.884;2023-02-23T00:04:19;98768.81;;;24.08;21.24
54816;BME280;40715;55.752;37.884;2023-02-23T00:06:46;98767.13;;;24.07;21.40
54816;BME280;40715;55.752;37.884;2023-02-23T00:09:13;98773.66;;;24.05;21.51
54816;BME280;40715;55.752;37.884;2023-02-23T00:11:51;98774.47;;;24.05;21.51
54816;BME280;40715;55.752;37.884;2023-02-23T00:14:20;98769.69;;;23.99;21.89
54816;BME280;40715;55.752;37.884;2023-02-23T00:16:48;98777.75;;;23.99;21.77
54816;BME280;40715;55.752;37.884;2023-02-23T00:19:15;98777.03;;;23.97;21.57
54816;BME280;40715;55.752;37.884;2023-02-23T00:21:43;98774.47;;;23.95;21.62
54816;BME280;40715;55.752;37.884;2023-02-23T00:24:12;98772.06;;;23.92;21.52
54816;BME280;40715;55.752;37.884;2023-02-23T00:26:41;98788.34;;;23.91;21.74
54816;BME280;40715;55.752;37.884;2023-02-23T00:29:12;98789.34;;;23.90;22.19
54816;BME280;40715;55.752;37.884;2023-02-23T00:31:46;98788.50;;;23.89;22.38
54816;BME280;40715;55.752;37.884;2023-02-23T00:34:15;98783.25;;;23.88;21.91
54816;BME280;40715;55.752;37.884;2023-02-23T00:36:50;98784.25;;;23.87;21.87
54816;BME280;40715;55.752;37.884;2023-02-23T00:39:17;98791.44;;;23.86;21.75
54816;BME280;40715;55.752;37.884;2023-02-23T00:41:55;98796.81;;;23.86;22.15
54816;BME280;40715;55.752;37.884;2023-02-23T00:44:29;98789.03;;;23.83;21.88
54816;BME280;40715;55.752;37.884;2023-02-23T00:46:58;98785.81;;;23.89;22.28
54816;BME280;40715;55.752;37.884;2023-02-23T00:49:25;98801.94;;;23.89;21.73
54816;BME280;40715;55.752;37.884;2023-02-23T00:51:52;98793.88;;;23.89;21.74
54816;BME280;40715;55.752;37.884;2023-02-23T00:54:20;98795.75;;;23.99;22.10
54816;BME280;40715;55.752;37.884;2023-02-23T00:56:47;98790.38;;;23.99;21.78
54816;BME280;40715;55.752;37.884;2023-02-23T00:59:16;98788.66;;;24.07;21.94
54816;BME280;40715;55.752;37.884;2023-02-23T01:01:43;98790.34;;;24.08;22.15
54816;BME280;40715;55.752;37.884;2023-02-23T01:04:11;98785.97;;;24.07;21.76
54816;BME280;40715;55.752;37.884;2023-02-23T01:06:39;98793.63;;;24.12;21.88
54816;BME280;40715;55.752;37.884;2023-02-23T01:09:09;98792.78;;;24.11;21.79
54816;BME280;40715;55.752;37.884;2023-02-23T01:11:36;98794.44;;;24.12;21.96
54816;BME280;40715;55.752;37.884;2023-02-23T01:14:03;98794.31;;;24.14;21.97
54816;BME280;40715;55.752;37.884;2023-02-23T01:16:32;98805.22;;;24.12;22.37
54816;BME280;40715;55.752;37.884;2023-02-23T01:19:02;98806.09;;;24.13;22.44
54816;BME280;40715;55.752;37.884;2023-02-23T01:21:35;98813.28;;;24.12;22.83
54816;BME280;40715;55.752;37.884;2023-02-23T01:24:03;98819.94;;;24.08;22.08
54816;BME280;40715;55.752;37.884;2023-02-23T01:26:34;98821.78;;;24.08;22.32
54816;BME280;40715;55.752;37.884;2023-02-23T01:29:05;98816.56;;;24.06;22.11
54816;BME280;40715;55.752;37.884;2023-02-23T01:31:35;98822.22;;;24.03;22.45
54816;BME280;40715;55.752;37.884;2023-02-23T01:34:04;98818.81;;;24.01;22.03
54816;BME280;40715;55.752;37.884;2023-02-23T01:36:36;98800.09;;;23.90;22.30
54816;BME280;40715;55.752;37.884;2023-02-23T01:39:07;98811.44;;;23.93;21.85
54816;BME280;40715;55.752;37.884;2023-02-23T01:41:35;98815.13;;;23.92;22.64
54816;BME280;40715;55.752;37.884;2023-02-23T01:46:40;98815.41;;;23.89;22.26
54816;BME280;40715;55.752;37.884;2023-02-23T01:49:12;98816.78;;;23.84;22.42
54816;BME280;40715;55.752;37.884;2023-02-23T01:51:45;98811.25;;;23.85;22.39
54816;BME280;40715;55.752;37.884;2023-02-23T01:54:18;98817.75;;;23.83;22.36
54816;BME280;40715;55.752;37.884;2023-02-23T01:56:50;98815.19;;;23.71;22.17
54816;BME280;40715;55.752;37.884;2023-02-23T01:59:36;98835.41;;;24.36;21.60
54816;BME280;40715;55.752;37.884;2023-02-23T02:02:05;98829.78;;;23.78;21.74
54816;BME280;40715;55.752;37.884;2023-02-23T02:04:34;98832.59;;;23.67;22.08
54816;BME280;40715;55.752;37.884;2023-02-23T02:07:15;98829.91;;;23.67;22.52
54816;BME280;40715;55.752;37.884;2023-02-23T02:09:43;98839.81;;;23.67;22.28
54816;BME280;40715;55.752;37.884;2023-02-23T02:12:30;98837.53;;;24.22;21.68
54816;BME280;40715;55.752;37.884;2023-02-23T02:14:58;98834.00;;;23.71;21.68
54816;BME280;40715;55.752;37.884;2023-02-23T02:20:30;98851.28;;;23.69;21.97
54816;BME280;40715;55.752;37.884;2023-02-23T02:31:13;98853.38;;;23.96;21.93
54816;BME280;40715;55.752;37.884;2023-02-23T02:40:42;98858.63;;;24.07;21.81
54816;BME280;40715;55.752;37.884;2023-02-23T02:46:18;98865.94;;;23.95;21.93
54816;BME280;40715;55.752;37.884;2023-02-23T02:49:25;98862.44;;;24.05;21.87
54816;BME280;40715;55.752;37.884;2023-02-23T02:52:05;98860.84;;;23.92;21.93
54816;BME280;40715;55.752;37.884;2023-02-23T02:54:41;98862.25;;;23.87;21.75
54816;BME280;40715;55.752;37.884;2023-02-23T02:57:11;98854.28;;;23.85;21.67
54816;BME280;40715;55.752;37.884;2023-02-23T02:59:47;98860.53;;;23.86;21.65
54816;BME280;40715;55.752;37.884;2023-02-23T03:02:35;98857.13;;;23.84;21.73
54816;BME280;40715;55.752;37.884;2023-02-23T03:05:24;98865.31;;;23.82;21.40
54816;BME280;40715;55.752;37.884;2023-02-23T03:08:20;98869.00;;;23.81;21.84
54816;BME280;40715;55.752;37.884;2023-02-23T03:11:10;98856.25;;;23.73;21.88
54816;BME280;40715;55.752;37.884;2023-02-23T03:29:58;98877.03;;;23.61;21.94
54816;BME280;40715;55.752;37.884;2023-02-23T03:32:51;98875.72;;;23.56;21.88
54816;BME280;40715;55.752;37.884;2023-02-23T03:41:49;98871.88;;;23.49;21.42
54816;BME280;40715;55.752;37.884;2023-02-23T03:44:40;98879.06;;;23.48;21.76
54816;BME280;40715;55.752;37.884;2023-02-23T03:47:29;98885.31;;;23.49;21.75
54816;BME280;40715;55.752;37.884;2023-02-23T03:50:38;98893.81;;;23.54;21.58
54816;BME280;40715;55.752;37.884;2023-02-23T03:53:33;98890.56;;;23.60;21.92
54816;BME280;40715;55.752;37.884;2023-02-23T03:56:23;98892.00;;;23.64;21.44
54816;BME280;40715;55.752;37.884;2023-02-23T03:59:13;98897.97;;;23.68;21.90
54816;BME280;40715;55.752;37.884;2023-02-23T04:02:03;98895.75;;;23.73;21.42
54816;BME280;40715;55.752;37.884;2023-02-23T04:04:51;98895.19;;;23.79;21.79
54816;BME280;40715;55.752;37.884;2023-02-23T04:07:39;98888.84;;;23.80;21.60
54816;BME280;40715;55.752;37.884;2023-02-23T04:10:27;98890.38;;;23.83;21.45
54816;BME280;40715;55.752;37.884;2023-02-23T04:13:18;98894.63;;;23.85;21.06
54816;BME280;40715;55.752;37.884;2023-02-23T04:16:00;98896.25;;;23.88;21.09
54816;BME280;40715;55.752;37.884;2023-02-23T04:18:30;98883.47;;;23.80;21.20
54816;BME280;40715;55.752;37.884;2023-02-23T04:20:58;98890.13;;;23.86;21.03
54816;BME280;40715;55.752;37.884;2023-02-23T04:23:27;98896.47;;;23.85;21.07
54816;BME280;40715;55.752;37.884;2023-02-23T04:25:55;98892.81;;;23.86;21.30
54816;BME280;40715;55.752;37.884;2023-02-23T04:28:24;98896.47;;;23.85;20.94
54816;BME280;40715;55.752;37.884;2023-02-23T04:30:52;98897.31;;;23.85;21.46
54816;BME280;40715;55.752;37.884;2023-02-23T04:33:20;98903.81;;;23.83;21.17
54816;BME280;40715;55.752;37.884;2023-02-23T04:35:47;98910.78;;;23.85;21.09
54816;BME280;40715;55.752;37.884;2023-02-23T04:38:14;98916.28;;;23.84;21.25
54816;BME280;40715;55.752;37.884;2023-02-23T04:40:41;98927.06;;;23.84;21.21
54816;BME280;40715;55.752;37.884;2023-02-23T04:43:11;98932.72;;;23.81;21.53
54816;BME280;40715;55.752;37.884;2023-02-23T04:45:38;98925.63;;;23.79;21.19
54816;BME280;40715;55.752;37.884;2023-02-23T04:48:06;98922.09;;;23.79;21.69
54816;BME280;40715;55.752;37.884;2023-02-23T04:50:33;98931.97;;;23.78;21.11
54816;BME280;40715;55.752;37.884;2023-02-23T04:53:00;98931.13;;;23.78;21.40
54816;BME280;40715;55.752;37.884;2023-02-23T04:55:27;98927.47;;;23.79;21.79
54816;BME280;40715;55.752;37.884;2023-02-23T04:57:58;98913.69;;;23.72;22.08
54816;BME280;40715;55.752;37.884;2023-02-23T05:00:26;98917.56;;;23.79;22.31
54816;BME280;40715;55.752;37.884;2023-02-23T05:02:56;98928.16;;;23.81;22.21
54816;BME280;40715;55.752;37.884;2023-02-23T05:05:23;98935.75;;;23.87;22.17
54816;BME280;40715;55.752;37.884;2023-02-23T05:07:50;98937.75;;;23.95;22.14
54816;BME280;40715;55.752;37.884;2023-02-23T05:10:18;98932.81;;;24.00;22.34
54816;BME280;40715;55.752;37.884;2023-02-23T05:12:45;98933.97;;;24.07;22.37
54816;BME280;40715;55.752;37.884;2023-02-23T05:15:12;98929.72;;;24.15;22.14
54816;BME280;40715;55.752;37.884;2023-02-23T05:17:39;98930.88;;;24.22;22.13
54816;BME280;40715;55.752;37.884;2023-02-23T05:20:11;98932.44;;;24.34;22.24
54816;BME280;40715;55.752;37.884;2023-02-23T05:22:38;98934.03;;;24.46;22.34
54816;BME280;40715;55.752;37.884;2023-02-23T05:25:06;98938.75;;;24.64;22.37
54816;BME280;40715;55.752;37.884;2023-02-23T05:27:34;98933.38;;;24.84;22.14
54816;BME280;40715;55.752;37.884;2023-02-23T05:30:04;98940.59;;;25.03;22.03
54816;BME280;40715;55.752;37.884;2023-02-23T05:32:33;98949.50;;;25.23;21.70
54816;BME280;40715;55.752;37.884;2023-02-23T05:35:00;98939.41;;;25.44;21.70
54816;BME280;40715;55.752;37.884;2023-02-23T05:37:29;98943.19;;;25.61;21.49
54816;BME280;40715;55.752;37.884;2023-02-23T05:39:56;98949.22;;;25.83;21.42
54816;BME280;40715;55.752;37.884;2023-02-23T05:42:23;98948.88;;;25.96;21.12
54816;BME280;40715;55.752;37.884;2023-02-23T05:44:51;98959.34;;;26.09;21.08
54816;BME280;40715;55.752;37.884;2023-02-23T05:47:18;98952.59;;;26.23;20.89
54816;BME280;40715;55.752;37.884;2023-02-23T05:49:45;98952.69;;;26.31;20.73
54816;BME280;40715;55.752;37.884;2023-02-23T05:52:12;98952.44;;;26.42;20.63
54816;BME280;40715;55.752;37.884;2023-02-23T05:54:39;98960.59;;;26.60;20.62
54816;BME280;40715;55.752;37.884;2023-02-23T05:57:06;98955.69;;;26.74;20.32
54816;BME280;40715;55.752;37.884;2023-02-23T05:59:34;98952.44;;;26.88;20.61
54816;BME280;40715;55.752;37.884;2023-02-23T06:02:02;98965.41;;;27.02;20.50
54816;BME280;40715;55.752;37.884;2023-02-23T06:04:32;98953.31;;;27.15;20.12
54816;BME280;40715;55.752;37.884;2023-02-23T06:06:59;98963.72;;;27.28;20.17
54816;BME280;40715;55.752;37.884;2023-02-23T06:09:26;98958.09;;;27.39;20.06
54816;BME280;40715;55.752;37.884;2023-02-23T06:11:53;98961.25;;;27.52;20.14
54816;BME280;40715;55.752;37.884;2023-02-23T06:14:20;98962.50;;;27.66;19.73
54816;BME280;40715;55.752;37.884;2023-02-23T06:16:47;98964.78;;;27.79;19.57
54816;BME280;40715;55.752;37.884;2023-02-23T06:19:14;98956.38;;;27.90;19.52
54816;BME280;40715;55.752;37.884;2023-02-23T06:21:41;98964.91;;;28.04;19.64
54816;BME280;40715;55.752;37.884;2023-02-23T06:24:08;98968.00;;;28.17;19.38
54816;BME280;40715;55.752;37.884;2023-02-23T06:26:35;98962.47;;;28.27;19.41
54816;BME280;40715;55.752;37.884;2023-02-23T06:29:03;98976.41;;;28.40;19.06
54816;BME280;40715;55.752;37.884;2023-02-23T06:31:30;98971.69;;;28.51;18.95
54816;BME280;40715;55.752;37.884;2023-02-23T06:33:57;98973.06;;;28.63;19.09
54816;BME280;40715;55.752;37.884;2023-02-23T06:36:24;98974.81;;;28.72;19.30
54816;BME280;40715;55.752;37.884;2023-02-23T06:38:55;98981.06;;;28.81;19.32
54816;BME280;40715;55.752;37.884;2023-02-23T06:41:24;98982.78;;;28.90;19.42
54816;BME280;40715;55.752;37.884;2023-02-23T06:43:51;98982.63;;;29.00;19.23
54816;BME280;40715;55.752;37.884;2023-02-23T06:46:18;98986.38;;;29.07;19.55
54816;BME280;40715;55.752;37.884;2023-02-23T06:48:45;98978.38;;;29.14;19.64
54816;BME280;40715;55.752;37.884;2023-02-23T06:51:12;98981.78;;;29.24;19.38
54816;BME280;40715;55.752;37.884;2023-02-23T06:53:39;98987.03;;;29.34;19.70
54816;BME280;40715;55.752;37.884;2023-02-23T06:56:06;98968.41;;;29.39;19.69
54816;BME280;40715;55.752;37.884;2023-02-23T06:58:34;98989.22;;;29.55;19.64
54816;BME280;40715;55.752;37.884;2023-02-23T07:01:01;98986.50;;;29.64;19.61
54816;BME280;40715;55.752;37.884;2023-02-23T07:03:28;98998.53;;;29.69;19.54
54816;BME280;40715;55.752;37.884;2023-02-23T07:05:58;98994.44;;;29.82;19.46
54816;BME280;40715;55.752;37.884;2023-02-23T07:08:25;98999.88;;;29.90;19.61
54816;BME280;40715;55.752;37.884;2023-02-23T07:10:53;99003.25;;;30.00;19.43
54816;BME280;40715;55.752;37.884;2023-02-23T07:13:19;99011.34;;;30.08;19.47
54816;BME280;40715;55.752;37.884;2023-02-23T07:15:47;99008.78;;;30.15;19.30
54816;BME280;40715;55.752;37.884;2023-02-23T07:18:14;99010.47;;;30.24;19.15
54816;BME280;40715;55.752;37.884;2023-02-23T07:20:42;99013.13;;;30.33;19.34
54816;BME280;40715;55.752;37.884;2023-02-23T07:23:08;99018.38;;;30.42;19.17
54816;BME280;40715;55.752;37.884;2023-02-23T07:25:35;99010.84;;;30.53;19.22
54816;BME280;40715;55.752;37.884;2023-02-23T07:28:02;99016.94;;;30.63;19.00
54816;BME280;40715;55.752;37.884;2023-02-23T07:30:29;99018.56;;;30.72;19.03
54816;BME280;40715;55.752;37.884;2023-02-23T07:32:56;99007.31;;;30.75;18.72
54816;BME280;40715;55.752;37.884;2023-02-23T07:35:23;99020.31;;;30.88;18.73
54816;BME280;40715;55.752;37.884;2023-02-23T07:37:50;99019.06;;;30.99;19.03
54816;BME280;40715;55.752;37.884;2023-02-23T07:40:17;99024.31;;;31.09;19.01
54816;BME280;40715;55.752;37.884;2023-02-23T07:42:45;99031.53;;;31.17;18.75
54816;BME280;40715;55.752;37.884;2023-02-23T07:45:12;99035.03;;;31.25;18.69
54816;BME280;40715;55.752;37.884;2023-02-23T07:47:39;99036.69;;;31.35;18.73
54816;BME280;40715;55.752;37.884;2023-02-23T07:50:07;99040.19;;;31.43;18.56
54816;BME280;40715;55.752;37.884;2023-02-23T07:52:36;99036.81;;;31.56;18.87
54816;BME280;40715;55.752;37.884;2023-02-23T07:55:06;99051.72;;;31.69;18.21
54816;BME280;40715;55.752;37.884;2023-02-23T07:57:34;99049.56;;;31.79;18.69
54816;BME280;40715;55.752;37.884;2023-02-23T08:00:01;99042.53;;;31.84;18.28
54816;BME280;40715;55.752;37.884;2023-02-23T08:02:29;99041.78;;;31.91;18.57
54816;BME280;40715;55.752;37.884;2023-02-23T08:04:58;99039.47;;;32.03;18.46
54816;BME280;40715;55.752;37.884;2023-02-23T08:07:26;99035.50;;;32.05;18.03
54816;BME280;40715;55.752;37.884;2023-02-23T08:09:53;99040.22;;;32.11;18.34
54816;BME280;40715;55.752;37.884;2023-02-23T08:12:20;99039.09;;;32.21;18.26
54816;BME280;40715;55.752;37.884;2023-02-23T08:14:47;99044.66;;;32.27;18.11
54816;BME280;40715;55.752;37.884;2023-02-23T08:17:14;99040.50;;;32.31;18.01
54816;BME280;40715;55.752;37.884;2023-02-23T08:19:41;99040.22;;;32.41;17.73
54816;BME280;40715;55.752;37.884;2023-02-23T08:22:08;99032.03;;;32.41;18.04
54816;BME280;40715;55.752;37.884;2023-02-23T08:24:36;99037.75;;;32.46;18.22
54816;BME280;40715;55.752;37.884;2023-02-23T08:27:03;99036.81;;;32.54;18.00
54816;BME280;40715;55.752;37.884;2023-02-23T08:29:30;99031.63;;;32.59;17.95
54816;BME280;40715;55.752;37.884;2023-02-23T08:31:57;99039.44;;;32.62;18.17
54816;BME280;40715;55.752;37.884;2023-02-23T08:34:27;99032.75;;;32.65;18.48
54816;BME280;40715;55.752;37.884;2023-02-23T08:36:55;99041.88;;;32.72;18.34
54816;BME280;40715;55.752;37.884;2023-02-23T08:39:22;99042.53;;;32.74;18.52
54816;BME280;40715;55.752;37.884;2023-02-23T08:41:49;99045.47;;;32.73;18.10
54816;BME280;40715;55.752;37.884;2023-02-23T08:44:17;99042.06;;;32.71;18.45
54816;BME280;40715;55.752;37.884;2023-02-23T08:46:45;99038.13;;;32.73;17.82
54816;BME280;40715;55.752;37.884;2023-02-23T08:49:12;99037.28;;;32.73;18.56
54816;BME280;40715;55.752;37.884;2023-02-23T08:51:39;99043.38;;;32.75;18.17
54816;BME280;40715;55.752;37.884;2023-02-23T08:54:07;99047.13;;;32.74;18.64
54816;BME280;40715;55.752;37.884;2023-02-23T08:56:40;99048.59;;;32.69;18.78
54816;BME280;40715;55.752;37.884;2023-02-23T08:59:08;99052.13;;;32.55;18.28
54816;BME280;40715;55.752;37.884;2023-02-23T09:01:36;99042.84;;;32.34;18.55
54816;BME280;40715;55.752;37.884;2023-02-23T09:04:04;99049.94;;;32.14;18.80
54816;BME280;40715;55.752;37.884;2023-02-23T09:06:32;99046.31;;;31.98;18.69
54816;BME280;40715;55.752;37.884;2023-02-23T09:09:01;99043.09;;;31.80;18.95
54816;BME280;40715;55.752;37.884;2023-02-23T09:11:28;99046.66;;;31.65;18.86
54816;BME280;40715;55.752;37.884;2023-02-23T09:13:55;99042.53;;;31.46;18.70
54816;BME280;40715;55.752;37.884;2023-02-23T09:16:22;99049.59;;;31.32;18.97
54816;BME280;40715;55.752;37.884;2023-02-23T09:18:50;99036.97;;;31.17;18.95
54816;BME280;40715;55.752;37.884;2023-02-23T09:21:19;99050.34;;;31.03;19.23
54816;BME280;40715;55.752;37.884;2023-02-23T09:23:51;99037.78;;;30.94;18.94
54816;BME280;40715;55.752;37.884;2023-02-23T09:26:21;99049.06;;;30.83;18.39
54816;BME280;40715;55.752;37.884;2023-02-23T09:28:49;99047.44;;;30.73;18.63
54816;BME280;40715;55.752;37.884;2023-02-23T09:31:21;99052.91;;;30.65;19.18
54816;BME280;40715;55.752;37.884;2023-02-23T09:33:49;99052.78;;;30.58;19.10
54816;BME280;40715;55.752;37.884;2023-02-23T09:36:19;99042.16;;;30.49;19.54
54816;BME280;40715;55.752;37.884;2023-02-23T09:38:49;99047.25;;;30.43;19.75
54816;BME280;40715;55.752;37.884;2023-02-23T09:49:43;99034.63;;;30.03;20.40
54816;BME280;40715;55.752;37.884;2023-02-23T09:52:16;99032.28;;;29.91;20.67
54816;BME280;40715;55.752;37.884;2023-02-23T09:54:45;99038.06;;;29.80;20.66
54816;BME280;40715;55.752;37.884;2023-02-23T09:57:20;99029.25;;;29.70;21.09
54816;BME280;40715;55.752;37.884;2023-02-23T09:59:49;99032.31;;;29.58;20.81
54816;BME280;40715;55.752;37.884;2023-02-23T10:02:33;99028.75;;;29.50;21.04
54816;BME280;40715;55.752;37.884;2023-02-23T10:05:08;99036.41;;;29.38;20.86
54816;BME280;40715;55.752;37.884;2023-02-23T10:07:48;99035.91;;;29.26;20.66
54816;BME280;40715;55.752;37.884;2023-02-23T10:10:32;99038.75;;;29.16;21.05
54816;BME280;40715;55.752;37.884;2023-02-23T10:16:03;99036.00;;;29.00;21.20
54816;BME280;40715;55.752;37.884;2023-02-23T10:19:21;99026.03;;;29.00;21.52
54816;BME280;40715;55.752;37.884;2023-02-23T10:22:02;99025.47;;;28.72;21.74
54816;BME280;40715;55.752;37.884;2023-02-23T10:24:38;99028.09;;;28.55;21.75
54816;BME280;40715;55.752;37.884;2023-02-23T10:27:17;99023.81;;;28.45;21.95
54816;BME280;40715;55.752;37.884;2023-02-23T10:29:48;99019.22;;;28.37;22.00
54816;BME280;40715;55.752;37.884;2023-02-23T10:32:37;99011.41;;;28.34;22.38
54816;BME280;40715;55.752;37.884;2023-02-23T10:35:11;99018.47;;;28.18;22.34
54816;BME280;40715;55.752;37.884;2023-02-23T10:37:39;99015.53;;;28.12;22.21
54816;BME280;40715;55.752;37.884;2023-02-23T10:40:06;99017.38;;;28.03;22.39
54816;BME280;40715;55.752;37.884;2023-02-23T10:42:39;99017.16;;;27.96;22.42
54816;BME280;40715;55.752;37.884;2023-02-23T10:45:15;99022.19;;;27.91;22.84
54816;BME280;40715;55.752;37.884;2023-02-23T10:47:45;99018.59;;;27.82;22.60
54816;BME280;40715;55.752;37.884;2023-02-23T10:50:13;99019.38;;;27.75;22.82
54816;BME280;40715;55.752;37.884;2023-02-23T10:52:45;99020.03;;;27.68;22.95
54816;BME280;40715;55.752;37.884;2023-02-23T10:55:26;99023.88;;;27.66;23.04
54816;BME280;40715;55.752;37.884;2023-02-23T10:58:18;99021.34;;;27.64;23.12
54816;BME280;40715;55.752;37.884;2023-02-23T11:00:56;99026.84;;;27.54;23.09
54816;BME280;40715;55.752;37.884;2023-02-23T11:03:34;99019.84;;;27.44;23.17
54816;BME280;40715;55.752;37.884;2023-02-23T11:06:02;99014.22;;;27.37;23.40
54816;BME280;40715;55.752;37.884;2023-02-23T11:08:32;99024.94;;;27.29;23.56
54816;BME280;40715;55.752;37.884;2023-02-23T11:13:28;99019.75;;;27.17;23.32
54816;BME280;40715;55.752;37.884;2023-02-23T12:10:31;98984.78;;;26.06;23.82
54816;BME280;40715;55.752;37.884;2023-02-23T12:13:07;98998.53;;;26.68;22.90
54816;BME280;40715;55.752;37.884;2023-02-23T12:15:55;99004.41;;;26.08;22.90
54816;BME280;40715;55.752;37.884;2023-02-23T12:20:54;98994.06;;;25.94;22.81
54816;BME280;40715;55.752;37.884;2023-02-23T12:23:27;98996.03;;;25.92;22.39
54816;BME280;40715;55.752;37.884;2023-02-23T12:26:04;98984.94;;;25.95;22.43
54816;BME280;40715;55.752;37.884;2023-02-23T12:28:37;98991.63;;;25.91;22.79
54816;BME280;40715;55.752;37.884;2023-02-23T12:34:26;98993.91;;;25.95;22.00
54816;BME280;40715;55.752;37.884;2023-02-23T12:37:37;99010.06;;;26.05;21.97
54816;BME280;40715;55.752;37.884;2023-02-23T12:40:13;99006.13;;;25.90;22.04
54816;BME280;40715;55.752;37.884;2023-02-23T12:42:49;99012.53;;;25.89;22.12
54816;BME280;40715;55.752;37.884;2023-02-23T12:45:48;98999.16;;;25.97;21.90
54816;BME280;40715;55.752;37.884;2023-02-23T12:48:36;98993.22;;;25.83;21.84
54816;BME280;40715;55.752;37.884;2023-02-23T12:51:21;98999.91;;;25.79;21.81
54816;BME280;40715;55.752;37.884;2023-02-23T12:53:50;98997.06;;;25.81;21.74
54816;BME280;40715;55.752;37.884;2023-02-23T13:01:52;99009.09;;;25.87;22.25
54816;BME280;40715;55.752;37.884;2023-02-23T13:09:48;98998.03;;;25.90;21.97
54816;BME280;40715;55.752;37.884;2023-02-23T13:12:25;99006.56;;;25.85;22.04
54816;BME280;40715;55.752;37.884;2023-02-23T13:23:19;99001.22;;;25.75;21.75
54816;BME280;40715;55.752;37.884;2023-02-23T13:31:35;98994.56;;;25.70;22.07
54816;BME280;40715;55.752;37.884;2023-02-23T13:34:05;98997.00;;;25.63;21.89
54816;BME280;40715;55.752;37.884;2023-02-23T13:36:36;98998.97;;;25.61;22.07
54816;BME280;40715;55.752;37.884;2023-02-23T13:42:29;98995.84;;;25.65;22.72
54816;BME280;40715;55.752;37.884;2023-02-23T13:45:39;99004.75;;;25.76;22.51
54816;BME280;40715;55.752;37.884;2023-02-23T13:48:34;98995.84;;;25.65;22.81
54816;BME280;40715;55.752;37.884;2023-02-23T13:56:25;99006.09;;;25.52;23.34
54816;BME280;40715;55.752;37.884;2023-02-23T13:58:58;99000.69;;;25.52;23.42
54816;BME280;40715;55.752;37.884;2023-02-23T14:01:31;98993.50;;;25.43;23.25
54816;BME280;40715;55.752;37.884;2023-02-23T14:04:03;98995.31;;;25.52;23.55
54816;BME280;40715;55.752;37.884;2023-02-23T14:06:33;99002.56;;;25.52;23.87
54816;BME280;40715;55.752;37.884;2023-02-23T14:09:15;98998.72;;;25.54;23.69
54816;BME280;40715;55.752;37.884;2023-02-23T14:12:15;98998.81;;;25.62;23.98
54816;BME280;40715;55.752;37.884;2023-02-23T14:14:45;98999.44;;;25.46;24.10
54816;BME280;40715;55.752;37.884;2023-02-23T14:22:29;98995.59;;;25.39;23.98
54816;BME280;40715;55.752;37.884;2023-02-23T14:28:03;98993.34;;;25.35;25.03
54816;BME280;40715;55.752;37.884;2023-02-23T14:30:58;99000.31;;;25.37;25.11
54816;BME280;40715;55.752;37.884;2023-02-23T14:44:05;98980.16;;;25.31;25.51
54816;BME280;40715;55.752;37.884;2023-02-23T14:46:56;98983.25;;;25.37;25.49
54816;BME280;40715;55.752;37.884;2023-02-23T14:49:27;98983.13;;;25.28;25.42
54816;BME280;40715;55.752;37.884;2023-02-23T14:52:03;98977.16;;;25.25;25.40
54816;BME280;40715;55.752;37.884;2023-02-23T14:54:36;98985.25;;;25.25;25.47
54816;BME280;40715;55.752;37.884;2023-02-23T14:59:57;98981.72;;;25.24;25.26
54816;BME280;40715;55.752;37.884;2023-02-23T15:02:28;98970.19;;;25.22;25.52
54816;BME280;40715;55.752;37.884;2023-02-23T15:04:55;98966.25;;;25.16;26.28
54816;BME280;40715;55.752;37.884;2023-02-23T15:07:37;98968.09;;;25.26;26.05
54816;BME280;40715;55.752;37.884;2023-02-23T15:10:09;98965.94;;;25.20;25.92
54816;BME280;40715;55.752;37.884;2023-02-23T15:12:38;98966.97;;;25.19;25.81
54816;BME280;40715;55.752;37.884;2023-02-23T15:15:15;98959.84;;;25.18;25.46
54816;BME280;40715;55.752;37.884;2023-02-23T15:17:45;98960.00;;;25.16;25.71
54816;BME280;40715;55.752;37.884;2023-02-23T15:20:18;98969.81;;;25.17;26.25
54816;BME280;40715;55.752;37.884;2023-02-23T15:22:53;98960.16;;;25.14;26.13
54816;BME280;40715;55.752;37.884;2023-02-23T15:25:25;98964.13;;;25.10;26.07
54816;BME280;40715;55.752;37.884;2023-02-23T15:28:30;98967.81;;;25.19;26.03
54816;BME280;40715;55.752;37.884;2023-02-23T15:30:59;98966.81;;;25.10;26.48
54816;BME280;40715;55.752;37.884;2023-02-23T15:33:27;98964.28;;;25.09;26.20
54816;BME280;40715;55.752;37.884;2023-02-23T15:36:15;98961.72;;;25.07;26.16
54816;BME280;40715;55.752;37.884;2023-02-23T15:38:48;98965.84;;;25.02;26.09
54816;BME280;40715;55.752;37.884;2023-02-23T15:41:30;98972.34;;;25.09;26.27
54816;BME280;40715;55.752;37.884;2023-02-23T15:44:21;98970.78;;;25.16;26.88
54816;BME280;40715;55.752;37.884;2023-02-23T15:46:58;98969.09;;;25.05;26.44
54816;BME280;40715;55.752;37.884;2023-02-23T15:49:31;98970.25;;;25.03;26.25
54816;BME280;40715;55.752;37.884;2023-02-23T15:52:02;98977.91;;;24.97;25.98
54816;BME280;40715;55.752;37.884;2023-02-23T15:54:36;98965.00;;;24.91;26.55
54816;BME280;40715;55.752;37.884;2023-02-23T15:57:18;98981.56;;;24.96;26.64
54816;BME280;40715;55.752;37.884;2023-02-23T15:59:47;98948.84;;;24.81;26.81
54816;BME280;40715;55.752;37.884;2023-02-23T16:02:17;98962.16;;;24.93;26.72
54816;BME280;40715;55.752;37.884;2023-02-23T16:04:46;98971.22;;;24.92;26.79
54816;BME280;40715;55.752;37.884;2023-02-23T16:07:24;98966.00;;;24.90;26.82
54816;BME280;40715;55.752;37.884;2023-02-23T16:10:04;98973.09;;;24.91;27.17
54816;BME280;40715;55.752;37.884;2023-02-23T16:12:35;98960.75;;;24.89;27.23
54816;BME280;40715;55.752;37.884;2023-02-23T16:18:02;98947.28;;;24.89;27.62